sensor_id;sensor_type;location;lat;lon;timestamp;P1;durP1;ratioP1;P2;durP2;ratioP2
63581;SDS011;49727;51.078;17.066;2023-04-24T00:05:00;15.65;;;10.43;;
63581;SDS011;49727;51.078;17.066;2023-04-24T00:20:03;16.40;;;11.33;;
63581;SDS011;49727;51.078;17.066;2023-04-24T00:35:05;17.53;;;12.80;;
63581;SDS011;49727;51.078;17.066;2023-04-24T00:50:06;16.90;;;12.33;;
63581;SDS011;49727;51.078;17.066;2023-04-24T01:05:07;20.53;;;13.70;;
63581;SDS011;49727;51.078;17.066;2023-04-24T01:20:08;15.50;;;12.57;;
63581;SDS011;49727;51.078;17.066;2023-04-24T01:35:09;19.87;;;12.13;;
63581;SDS011;49727;51.078;17.066;2023-04-24T01:50:09;15.48;;;11.93;;
63581;SDS011;49727;51.078;17.066;2023-04-24T02:05:10;15.63;;;11.85;;
63581;SDS011;49727;51.078;17.066;2023-04-24T02:20:10;17.55;;;10.95;;
63581;SDS011;49727;51.078;17.066;2023-04-24T02:35:11;15.13;;;11.23;;
63581;SDS011;49727;51.078;17.066;2023-04-24T02:50:11;15.32;;;11.65;;
63581;SDS011;49727;51.078;17.066;2023-04-24T03:05:12;15.13;;;10.85;;
63581;SDS011;49727;51.078;17.066;2023-04-24T03:20:12;16.35;;;11.18;;
63581;SDS011;49727;51.078;17.066;2023-04-24T03:35:12;14.85;;;10.88;;
63581;SDS011;49727;51.078;17.066;2023-04-24T03:50:13;13.68;;;10.68;;
63581;SDS011;49727;51.078;17.066;2023-04-24T04:05:13;15.35;;;11.23;;
63581;SDS011;49727;51.078;17.066;2023-04-24T04:20:13;16.30;;;11.02;;
63581;SDS011;49727;51.078;17.066;2023-04-24T04:35:14;16.45;;;11.35;;
63581;SDS011;49727;51.078;17.066;2023-04-24T04:50:14;20.75;;;11.35;;
63581;SDS011;49727;51.078;17.066;2023-04-24T05:05:16;13.93;;;9.47;;
63581;SDS011;49727;51.078;17.066;2023-04-24T05:20:17;12.47;;;8.13;;
63581;SDS011;49727;51.078;17.066;2023-04-24T05:35:17;10.63;;;6.63;;
63581;SDS011;49727;51.078;17.066;2023-04-24T05:50:18;12.13;;;7.15;;
63581;SDS011;49727;51.078;17.066;2023-04-24T06:05:19;10.70;;;7.57;;
63581;SDS011;49727;51.078;17.066;2023-04-24T06:20:19;7.30;;;4.93;;
63581;SDS011;49727;51.078;17.066;2023-04-24T06:35:20;10.10;;;5.63;;
63581;SDS011;49727;51.078;17.066;2023-04-24T06:50:20;9.40;;;5.80;;
63581;SDS011;49727;51.078;17.066;2023-04-24T07:05:20;10.98;;;5.22;;
63581;SDS011;49727;51.078;17.066;2023-04-24T07:20:21;9.30;;;5.22;;
63581;SDS011;49727;51.078;17.066;2023-04-24T07:35:21;12.00;;;5.72;;
63581;SDS011;49727;51.078;17.066;2023-04-24T07:50:22;9.20;;;3.90;;
63581;SDS011;49727;51.078;17.066;2023-04-24T08:05:22;6.68;;;4.63;;
63581;SDS011;49727;51.078;17.066;2023-04-24T08:20:23;8.80;;;4.50;;
63581;SDS011;49727;51.078;17.066;2023-04-24T08:35:23;12.52;;;5.13;;
63581;SDS011;49727;51.078;17.066;2023-04-24T08:50:23;9.38;;;6.25;;
63581;SDS011;49727;51.078;17.066;2023-04-24T09:05:24;8.32;;;5.20;;
63581;SDS011;49727;51.078;17.066;2023-04-24T09:20:25;8.85;;;5.63;;
63581;SDS011;49727;51.078;17.066;2023-04-24T09:35:25;9.43;;;5.65;;
63581;SDS011;49727;51.078;17.066;2023-04-24T09:50:25;10.80;;;5.80;;
63581;SDS011;49727;51.078;17.066;2023-04-24T10:05:29;6.90;;;5.73;;
63581;SDS011;49727;51.078;17.066;2023-04-24T10:20:32;6.33;;;4.93;;
63581;SDS011;49727;51.078;17.066;2023-04-24T10:35:34;6.23;;;4.47;;
63581;SDS011;49727;51.078;17.066;2023-04-24T10:50:47;6.30;;;4.87;;
63581;SDS011;49727;51.078;17.066;2023-04-24T11:06:05;9.73;;;6.30;;
63581;SDS011;49727;51.078;17.066;2023-04-24T11:21:12;7.37;;;5.70;;
63581;SDS011;49727;51.078;17.066;2023-04-24T11:36:13;7.93;;;5.27;;
63581;SDS011;49727;51.078;17.066;2023-04-24T11:51:14;7.07;;;5.70;;
63581;SDS011;49727;51.078;17.066;2023-04-24T12:06:14;7.63;;;6.17;;
63581;SDS011;49727;51.078;17.066;2023-04-24T12:21:15;7.88;;;5.88;;
63581;SDS011;49727;51.078;17.066;2023-04-24T12:36:20;8.37;;;5.10;;
63581;SDS011;49727;51.078;17.066;2023-04-24T12:51:21;5.80;;;5.17;;
63581;SDS011;49727;51.078;17.066;2023-04-24T13:21:23;8.85;;;4.05;;
63581;SDS011;49727;51.078;17.066;2023-04-24T13:36:23;8.70;;;2.20;;
63581;SDS011;49727;51.078;17.066;2023-04-24T13:51:25;3.58;;;2.05;;
63581;SDS011;49727;51.078;17.066;2023-04-24T14:06:27;3.27;;;1.40;;
63581;SDS011;49727;51.078;17.066;2023-04-24T14:21:27;3.78;;;2.20;;
63581;SDS011;49727;51.078;17.066;2023-04-24T14:36:27;2.70;;;1.75;;
63581;SDS011;49727;51.078;17.066;2023-04-24T14:51:28;5.05;;;1.95;;
63581;SDS011;49727;51.078;17.066;2023-04-24T15:06:29;3.65;;;2.20;;
63581;SDS011;49727;51.078;17.066;2023-04-24T15:21:31;5.13;;;1.53;;
63581;SDS011;49727;51.078;17.066;2023-04-24T15:36:32;2.97;;;1.65;;
63581;SDS011;49727;51.078;17.066;2023-04-24T15:51:32;4.30;;;1.80;;
63581;SDS011;49727;51.078;17.066;2023-04-24T16:06:32;3.55;;;0.98;;
63581;SDS011;49727;51.078;17.066;2023-04-24T16:21:33;3.55;;;1.90;;
63581;SDS011;49727;51.078;17.066;2023-04-24T16:36:34;3.70;;;2.00;;
63581;SDS011;49727;51.078;17.066;2023-04-24T16:51:35;6.53;;;2.80;;
63581;SDS011;49727;51.078;17.066;2023-04-24T17:06:35;3.72;;;2.17;;
63581;SDS011;49727;51.078;17.066;2023-04-24T17:21:36;4.63;;;2.90;;
63581;SDS011;49727;51.078;17.066;2023-04-24T17:36:36;4.32;;;2.67;;
63581;SDS011;49727;51.078;17.066;2023-04-24T17:51:37;6.03;;;3.53;;
63581;SDS011;49727;51.078;17.066;2023-04-24T18:06:37;13.73;;;6.10;;
63581;SDS011;49727;51.078;17.066;2023-04-24T18:21:38;6.70;;;4.47;;
63581;SDS011;49727;51.078;17.066;2023-04-24T18:36:39;7.22;;;4.60;;
63581;SDS011;49727;51.078;17.066;2023-04-24T18:51:39;8.07;;;4.40;;
63581;SDS011;49727;51.078;17.066;2023-04-24T19:06:40;11.70;;;5.60;;
63581;SDS011;49727;51.078;17.066;2023-04-24T19:21:40;9.80;;;5.60;;
63581;SDS011;49727;51.078;17.066;2023-04-24T19:36:40;11.55;;;7.60;;
63581;SDS011;49727;51.078;17.066;2023-04-24T19:51:42;10.73;;;7.20;;
63581;SDS011;49727;51.078;17.066;2023-04-24T20:06:42;9.15;;;6.65;;
63581;SDS011;49727;51.078;17.066;2023-04-24T20:21:42;10.40;;;6.38;;
63581;SDS011;49727;51.078;17.066;2023-04-24T20:36:43;10.05;;;5.70;;
63581;SDS011;49727;51.078;17.066;2023-04-24T20:51:43;6.80;;;4.45;;
63581;SDS011;49727;51.078;17.066;2023-04-24T21:06:43;6.38;;;4.38;;
63581;SDS011;49727;51.078;17.066;2023-04-24T21:21:44;6.35;;;4.03;;
63581;SDS011;49727;51.078;17.066;2023-04-24T21:36:44;7.60;;;4.45;;
63581;SDS011;49727;51.078;17.066;2023-04-24T21:51:46;7.03;;;3.40;;
63581;SDS011;49727;51.078;17.066;2023-04-24T22:06:46;6.55;;;2.50;;
63581;SDS011;49727;51.078;17.066;2023-04-24T22:21:47;4.65;;;2.67;;
63581;SDS011;49727;51.078;17.066;2023-04-24T22:36:48;6.27;;;2.93;;
63581;SDS011;49727;51.078;17.066;2023-04-24T22:51:49;4.18;;;2.53;;
63581;SDS011;49727;51.078;17.066;2023-04-24T23:06:50;3.43;;;2.37;;
63581;SDS011;49727;51.078;17.066;2023-04-24T23:21:51;4.25;;;1.75;;
63581;SDS011;49727;51.078;17.066;2023-04-24T23:36:51;3.22;;;1.58;;
63581;SDS011;49727;51.078;17.066;2023-04-24T23:51:51;1.60;;;1.13;;
